Time;durP1;ratioP1;P1;durP2;ratioP2;P2;SDS_P1;SDS_P2;PMS_P1;PMS_P2;Temp;Humidity;BMP_temperature;BMP_pressure;BME280_temperature;BME280_humidity;BME280_pressure;Samples;Min_cycle;Max_cycle;Signal;HPM_P1;HPM_P2
2024/04/15 00:01:28;;;;;;;;;;;14.20;99.90;;;13.31;100.00;97722.53;5435436;26;1801;-69
2024/04/15 00:03:55;;;;;;;;;;;14.20;99.90;;;13.30;100.00;97710.44;5436064;26;1837;-69
2024/04/15 00:06:23;;;;;;;;;;;14.20;99.90;;;13.28;100.00;97706.22;5432282;26;2512;-69
2024/04/15 00:08:50;;;;;;;;;;;14.20;99.90;;;13.15;100.00;97695.56;5431720;26;1579;-69
2024/04/15 00:11:17;;;;;;;;;;;14.20;99.90;;;13.35;100.00;97686.75;5433934;26;1778;-69
2024/04/15 00:13:44;;;;;;;;;;;14.20;99.90;;;13.42;100.00;97671.63;5427453;26;1617;-69
2024/04/15 00:16:11;;;;;;;;;;;14.20;99.90;;;13.44;100.00;97660.19;5432607;26;1570;-69
2024/04/15 00:18:38;;;;;;;;;;;14.30;99.90;;;13.32;100.00;97671.25;5425883;26;3678;-69
2024/04/15 00:21:10;;;;;;;;;;;14.20;99.90;;;13.40;100.00;97653.44;5431562;26;2654;-69
2024/04/15 00:23:37;;;;;;;;;;;14.20;99.90;;;13.33;100.00;97652.09;5423503;26;1888;-69
2024/04/15 00:26:04;;;;;;;;;;;14.20;99.90;;;13.26;100.00;97641.09;5432736;26;1817;-69
2024/04/15 00:28:32;;;;;;;;;;;14.20;99.90;;;13.33;100.00;97650.31;5429263;26;1585;-69
2024/04/15 00:30:59;;;;;;;;;;;14.10;99.90;;;13.31;100.00;97648.72;5436928;26;1653;-69
2024/04/15 00:33:26;;;;;;;;;;;14.10;99.90;;;13.30;100.00;97639.22;5433358;26;2021;-69
2024/04/15 00:35:53;;;;;;;;;;;14.20;99.90;;;13.28;100.00;97623.66;5439815;26;2602;-69
2024/04/15 00:38:20;;;;;;;;;;;14.10;99.90;;;13.13;100.00;97607.00;5436852;26;1607;-69
2024/04/15 00:40:47;;;;;;;;;;;14.10;99.90;;;13.10;100.00;97616.78;5433744;26;1763;-69
2024/04/15 00:43:14;;;;;;;;;;;14.10;99.90;;;13.07;100.00;97622.13;5435500;26;1844;-69
2024/04/15 00:45:42;;;;;;;;;;;14.00;99.90;;;12.85;100.00;97625.84;5433941;26;1696;-69
2024/04/15 00:48:14;;;;;;;;;;;14.00;99.90;;;12.74;100.00;97623.78;5430656;26;1821;-69
2024/04/15 00:50:44;;;;;;;;;;;13.90;99.90;;;12.78;100.00;97637.50;5436801;26;2531;-69
2024/04/15 00:53:13;;;;;;;;;;;13.80;99.90;;;12.71;100.00;97630.91;5436017;26;1600;-69
2024/04/15 00:55:41;;;;;;;;;;;13.80;99.90;;;12.77;100.00;97633.19;5433091;26;1743;-69
2024/04/15 00:58:09;;;;;;;;;;;13.70;99.90;;;12.71;100.00;97642.16;5431946;26;1517;-69
2024/04/15 01:00:36;;;;;;;;;;;13.70;99.90;;;12.88;100.00;97649.13;5431863;26;1675;-69
2024/04/15 01:03:03;;;;;;;;;;;13.70;99.90;;;12.90;100.00;97639.47;5422375;26;3919;-69
2024/04/15 01:05:30;;;;;;;;;;;13.80;99.90;;;12.85;100.00;97627.63;5429778;26;2695;-69
2024/04/15 01:07:57;;;;;;;;;;;13.70;99.90;;;12.89;100.00;97618.72;5435132;26;1603;-69
2024/04/15 01:10:24;;;;;;;;;;;13.70;99.90;;;12.83;100.00;97622.47;5438048;26;1742;-69
2024/04/15 01:12:51;;;;;;;;;;;13.70;99.90;;;12.68;100.00;97616.28;5429938;26;1875;-69
2024/04/15 01:15:19;;;;;;;;;;;13.80;99.90;;;12.75;100.00;97622.03;5428448;26;1616;-69
2024/04/15 01:17:45;;;;;;;;;;;13.70;99.90;;;12.70;100.00;97626.63;5433350;26;2204;-69
2024/04/15 01:20:13;;;;;;;;;;;13.70;99.90;;;12.72;100.00;97624.78;5431290;26;1590;-69
2024/04/15 01:22:54;;;;;;;;;;;13.50;99.90;;;12.62;100.00;97629.63;5432470;26;1895;-69
2024/04/15 01:25:21;;;;;;;;;;;13.50;99.90;;;12.71;100.00;97630.91;5430796;26;1567;-69
2024/04/15 01:27:48;;;;;;;;;;;13.60;99.90;;;12.70;100.00;97618.81;5432183;26;1634;-69
2024/04/15 01:30:15;;;;;;;;;;;13.60;99.90;;;12.83;100.00;97606.84;5430980;26;1592;-69
2024/04/15 01:32:42;;;;;;;;;;;13.60;99.90;;;12.82;100.00;97604.31;5435487;26;2306;-69
2024/04/15 01:35:09;;;;;;;;;;;13.60;99.90;;;12.68;100.00;97608.47;5435255;26;1636;-69
2024/04/15 01:37:36;;;;;;;;;;;13.70;99.90;;;12.69;100.00;97612.75;5428313;26;1682;-69
2024/04/15 01:40:03;;;;;;;;;;;13.60;99.90;;;12.64;100.00;97606.94;5433782;26;1602;-69
2024/04/15 01:42:30;;;;;;;;;;;13.60;99.90;;;12.56;100.00;97590.84;5430982;26;1561;-69
2024/04/15 01:44:57;;;;;;;;;;;13.60;99.90;;;12.61;100.00;97585.41;5435088;26;1837;-69
2024/04/15 01:47:24;;;;;;;;;;;13.60;99.90;;;12.41;100.00;97576.84;5430627;26;3907;-69
2024/04/15 01:49:51;;;;;;;;;;;13.50;99.90;;;12.55;100.00;97569.19;5431271;26;1509;-69
2024/04/15 01:52:17;;;;;;;;;;;13.50;99.90;;;12.47;100.00;97570.50;5436320;26;1537;-69
2024/04/15 01:54:44;;;;;;;;;;;13.50;99.90;;;12.41;100.00;97561.25;5409338;26;1736;-69
2024/04/15 01:57:11;;;;;;;;;;;13.40;99.90;;;12.26;100.00;97580.22;5432166;26;1793;-69
2024/04/15 01:59:38;;;;;;;;;;;13.30;99.90;;;12.29;100.00;97578.31;5436277;26;2099;-69
2024/04/15 02:02:05;;;;;;;;;;;13.20;99.90;;;12.39;100.00;97578.69;5431883;26;2703;-69
2024/04/15 02:04:32;;;;;;;;;;;13.20;99.90;;;12.40;100.00;97569.13;5433286;26;1841;-69
2024/04/15 02:06:59;;;;;;;;;;;13.20;99.90;;;12.35;100.00;97561.53;5435259;26;1725;-69
2024/04/15 02:09:25;;;;;;;;;;;13.30;99.90;;;12.39;100.00;97560.47;5434669;26;1640;-69
2024/04/15 02:11:52;;;;;;;;;;;13.30;99.90;;;12.22;100.00;97566.50;5432369;26;1699;-69
2024/04/15 02:14:19;;;;;;;;;;;13.30;99.90;;;11.88;100.00;97577.69;5402398;26;1520;-69
2024/04/15 02:16:46;;;;;;;;;;;13.20;99.90;;;11.92;100.00;97589.66;5432053;26;1825;-69
2024/04/15 02:19:13;;;;;;;;;;;13.00;99.90;;;11.86;100.00;97603.78;5432292;26;2543;-69
2024/04/15 02:21:40;;;;;;;;;;;12.80;99.90;;;11.84;100.00;97595.19;5432633;26;1631;-69
2024/04/15 02:24:07;;;;;;;;;;;12.70;99.90;;;11.83;100.00;97592.66;5435094;26;1853;-69
2024/04/15 02:26:34;;;;;;;;;;;12.60;99.90;;;11.86;100.00;97589.91;5432286;26;1625;-69
2024/04/15 02:29:01;;;;;;;;;;;12.60;99.90;;;11.87;100.00;97576.88;5431600;26;1615;-69
2024/04/15 02:31:28;;;;;;;;;;;12.60;99.90;;;11.81;100.00;97571.91;5431728;26;1616;-69
2024/04/15 02:33:56;;;;;;;;;;;12.60;99.90;;;11.83;100.00;97559.69;5431647;26;3799;-69
2024/04/15 02:36:22;;;;;;;;;;;12.70;99.90;;;11.88;100.00;97555.16;5420951;26;1570;-69
2024/04/15 02:38:50;;;;;;;;;;;12.80;99.90;;;11.96;100.00;97548.75;5432449;26;1583;-69
2024/04/15 02:41:16;;;;;;;;;;;12.80;99.90;;;11.85;100.00;97567.44;5429290;26;1597;-69
2024/04/15 02:43:43;;;;;;;;;;;12.80;99.90;;;11.98;100.00;97563.34;5432582;26;1849;-69
2024/04/15 02:46:10;;;;;;;;;;;12.90;99.90;;;11.90;100.00;97563.69;5430751;26;2581;-69
2024/04/15 02:48:37;;;;;;;;;;;12.80;99.90;;;12.02;100.00;97546.69;5428022;26;1648;-69
2024/04/15 02:51:04;;;;;;;;;;;12.80;99.90;;;12.09;100.00;97542.84;5428470;26;1760;-69
2024/04/15 02:53:32;;;;;;;;;;;12.90;99.90;;;12.06;100.00;97548.19;5431207;26;1591;-69
2024/04/15 02:56:00;;;;;;;;;;;13.00;99.90;;;12.13;100.00;97544.41;5432181;26;1556;-69
2024/04/15 02:58:27;;;;;;;;;;;13.00;99.90;;;12.00;100.00;97545.09;5433007;26;1859;-69
2024/04/15 03:00:56;;;;;;;;;;;13.00;99.90;;;12.06;100.00;97542.16;5430693;26;2532;-69
2024/04/15 03:03:23;;;;;;;;;;;13.00;99.90;;;12.05;100.00;97537.88;5433094;26;2714;-69
2024/04/15 03:05:50;;;;;;;;;;;13.00;99.90;;;12.04;100.00;97528.38;5431072;26;2690;-69
2024/04/15 03:08:17;;;;;;;;;;;12.90;99.90;;;11.99;100.00;97528.59;5432424;26;2747;-69
2024/04/15 03:10:44;;;;;;;;;;;12.90;99.90;;;11.90;100.00;97523.84;5429823;26;1666;-69
2024/04/15 03:13:11;;;;;;;;;;;12.80;99.90;;;11.73;100.00;97529.84;5423875;26;1614;-69
2024/04/15 03:15:38;;;;;;;;;;;12.60;99.90;;;11.62;100.00;97524.31;5432076;26;1504;-69
2024/04/15 03:18:04;;;;;;;;;;;12.60;99.90;;;11.65;100.00;97522.41;5433871;26;1693;-69
2024/04/15 03:20:32;;;;;;;;;;;12.60;99.90;;;11.68;100.00;97526.63;5434863;26;1655;-69
2024/04/15 03:22:58;;;;;;;;;;;12.70;99.90;;;11.59;100.00;97530.50;5432106;26;3664;-69
2024/04/15 03:25:25;;;;;;;;;;;12.60;99.90;;;11.57;100.00;97540.13;5433160;26;2043;-69
2024/04/15 03:27:52;;;;;;;;;;;;;;;11.64;100.00;97538.94;5432400;26;1591;-69
2024/04/15 03:30:19;;;;;;;;;;;12.50;99.90;;;11.40;100.00;97538.31;5427659;26;1523;-69
2024/04/15 03:32:46;;;;;;;;;;;12.40;99.90;;;11.46;100.00;97540.63;5434641;26;1702;-69
2024/04/15 03:35:14;;;;;;;;;;;12.50;99.90;;;11.49;100.00;97537.03;5430139;26;1729;-69
2024/04/15 03:37:42;;;;;;;;;;;12.50;99.90;;;11.55;100.00;97533.34;5434111;26;2234;-69
2024/04/15 03:40:10;;;;;;;;;;;12.50;99.90;;;11.54;100.00;97524.69;5431504;26;2667;-69
2024/04/15 03:42:37;;;;;;;;;;;12.50;99.90;;;11.35;100.00;97523.84;5429433;26;1604;-69
2024/04/15 03:45:04;;;;;;;;;;;12.50;99.90;;;11.44;100.00;97526.03;5432834;26;1857;-69
2024/04/15 03:47:31;;;;;;;;;;;12.40;99.90;;;11.42;100.00;97525.25;5430391;26;1552;-69
2024/04/15 03:49:58;;;;;;;;;;;12.40;99.90;;;11.36;100.00;97518.59;5430183;26;1584;-69
2024/04/15 03:52:25;;;;;;;;;;;12.30;99.90;;;11.41;100.00;97520.97;5436312;26;1750;-69
2024/04/15 03:54:51;;;;;;;;;;;12.30;99.90;;;11.48;100.00;97517.19;5432298;26;2461;-69
2024/04/15 03:57:18;;;;;;;;;;;12.30;99.90;;;11.37;100.00;97522.88;5428951;26;2632;-69
2024/04/15 03:59:45;;;;;;;;;;;12.30;99.90;;;11.41;100.00;97519.22;5428699;26;1590;-69
2024/04/15 04:02:12;;;;;;;;;;;12.20;99.90;;;11.25;100.00;97515.66;5427221;26;1691;-69
2024/04/15 04:04:40;;;;;;;;;;;12.20;99.90;;;11.33;100.00;97517.88;5433189;26;1926;-69
2024/04/15 04:07:07;;;;;;;;;;;12.10;99.90;;;11.41;100.00;97516.63;5429225;26;1641;-69
2024/04/15 04:09:34;;;;;;;;;;;12.20;99.90;;;11.36;100.00;97518.59;5432197;26;3781;-68
2024/04/15 04:12:01;;;;;;;;;;;12.10;99.90;;;11.38;100.00;97515.91;5433017;26;1557;-69
2024/04/15 04:14:28;;;;;;;;;;;12.10;99.90;;;11.33;100.00;97518.72;5438714;26;1497;-69
2024/04/15 04:16:55;;;;;;;;;;;12.10;99.90;;;11.43;100.00;97507.00;5432511;26;1675;-69
2024/04/15 04:19:22;;;;;;;;;;;12.10;99.90;;;11.35;100.00;97516.91;5431421;26;1740;-69
2024/04/15 04:21:49;;;;;;;;;;;12.20;99.90;;;11.50;100.00;97520.56;5436474;26;2772;-69
2024/04/15 04:24:17;;;;;;;;;;;12.20;99.90;;;11.45;100.00;97522.53;5433886;26;1881;-69
2024/04/15 04:26:44;;;;;;;;;;;12.10;99.90;;;11.34;100.00;97522.19;5430069;26;2034;-69
2024/04/15 04:29:11;;;;;;;;;;;12.10;99.90;;;11.12;100.00;97510.16;5438129;26;1579;-69
2024/04/15 04:31:38;;;;;;;;;;;12.20;99.90;;;11.21;100.00;97514.94;5436118;26;1803;-69
2024/04/15 04:34:05;;;;;;;;;;;12.20;99.90;;;11.33;100.00;97517.88;5438475;26;1587;-69
2024/04/15 04:36:31;;;;;;;;;;;12.20;99.90;;;11.38;100.00;97516.78;5433785;26;2231;-69
2024/04/15 04:38:58;;;;;;;;;;;12.30;99.90;;;11.30;100.00;97522.31;5436661;26;1595;-69
2024/04/15 04:41:25;;;;;;;;;;;12.40;99.90;;;11.39;100.00;97521.03;5436910;26;1748;-69
2024/04/15 04:43:53;;;;;;;;;;;12.30;99.90;;;11.22;100.00;97513.19;5434205;26;1830;-69
2024/04/15 04:46:20;;;;;;;;;;;12.20;99.90;;;11.28;100.00;97515.50;5439484;26;1734;-69
2024/04/15 04:48:47;;;;;;;;;;;12.10;99.90;;;11.38;100.00;97518.50;5427982;26;1568;-69
2024/04/15 04:51:14;;;;;;;;;;;12.20;99.90;;;11.15;100.00;97532.56;5433393;26;3623;-69
2024/04/15 04:53:41;;;;;;;;;;;12.10;99.90;;;11.26;100.00;97531.16;5424827;26;1627;-69
2024/04/15 04:56:11;;;;;;;;;;;12.00;99.90;;;11.19;100.00;97539.31;5433434;26;1622;-69
2024/04/15 04:58:38;;;;;;;;;;;11.90;99.90;;;11.00;100.00;97540.16;5433318;26;1671;-69
2024/04/15 05:01:15;;;;;;;;;;;11.90;99.90;;;11.22;100.00;97534.84;5432531;26;1552;-69
2024/04/15 05:03:44;;;;;;;;;;;12.00;99.90;;;11.11;100.00;97534.47;5432806;26;2483;-69
2024/04/15 05:06:12;;;;;;;;;;;12.10;99.90;;;11.40;100.00;97540.06;5434402;26;2649;-69
2024/04/15 05:08:40;;;;;;;;;;;12.10;99.90;;;10.96;100.00;97551.56;5435793;26;1530;-69
2024/04/15 05:11:07;;;;;;;;;;;12.00;99.90;;;10.80;100.00;97561.78;5432100;26;1358;-69
2024/04/15 05:13:34;;;;;;;;;;;11.70;99.90;;;10.66;100.00;97559.81;5428876;26;1356;-69
2024/04/15 05:16:11;;;;;;;;;;;11.70;99.90;;;10.66;100.00;97558.97;5427064;26;1522;-69
2024/04/15 05:18:39;;;;;;;;;;;11.70;99.90;;;10.73;100.00;97562.97;5431068;26;2115;-69
2024/04/15 05:21:16;;;;;;;;;;;11.70;99.90;;;10.53;100.00;97576.81;5429675;26;1514;-69
2024/04/15 05:23:43;;;;;;;;;;;11.60;99.90;;;10.52;100.00;97587.28;5412671;26;1884;-69
2024/04/15 05:26:11;;;;;;;;;;;11.40;99.90;;;10.50;100.00;97584.72;5435487;26;1367;-69
2024/04/15 05:28:37;;;;;;;;;;;11.40;99.90;;;10.48;100.00;97586.53;5433835;26;1405;-69
2024/04/15 05:31:04;;;;;;;;;;;11.30;99.90;;;10.40;100.00;97596.38;5429819;26;1942;-68
2024/04/15 05:33:32;;;;;;;;;;;11.20;99.90;;;10.34;100.00;97610.47;5439272;26;3747;-69
2024/04/15 05:35:58;;;;;;;;;;;11.20;99.90;;;10.32;100.00;97609.69;5439572;26;1498;-68
2024/04/15 05:38:25;;;;;;;;;;;11.20;99.90;;;10.22;100.00;97629.94;5431810;26;1881;-69
2024/04/15 05:40:52;;;;;;;;;;;11.20;99.90;;;10.32;100.00;97632.19;5428067;26;1323;-69
2024/04/15 05:43:19;;;;;;;;;;;11.10;99.90;;;10.19;100.00;97639.59;5430599;26;1716;-69
2024/04/15 05:45:46;;;;;;;;;;;11.10;99.90;;;10.15;100.00;97645.78;5428660;26;1841;-68
2024/04/15 05:48:13;;;;;;;;;;;11.10;99.90;;;10.08;100.00;97646.94;5428830;26;2236;-69
2024/04/15 05:50:40;;;;;;;;;;;11.10;99.90;;;10.25;100.00;97634.16;5435212;26;1373;-69
2024/04/15 05:53:07;;;;;;;;;;;11.10;99.90;;;10.33;100.00;97641.66;5433127;26;1635;-69
2024/04/15 05:55:35;;;;;;;;;;;11.20;99.90;;;10.04;100.00;97652.28;5432306;26;1440;-69
2024/04/15 05:58:02;;;;;;;;;;;11.10;99.90;;;10.00;100.00;97663.66;5437695;26;1398;-69
2024/04/15 06:00:30;;;;;;;;;;;10.90;99.90;;;10.04;100.00;97672.19;5432287;26;1583;-69
2024/04/15 06:02:56;;;;;;;;;;;10.90;99.90;;;9.97;100.00;97675.91;5429747;26;2147;-69
2024/04/15 06:05:25;;;;;;;;;;;10.90;99.90;;;10.04;100.00;97667.81;5428121;26;1951;-69
2024/04/15 06:07:52;;;;;;;;;;;10.90;99.90;;;10.07;100.00;97663.44;5425635;26;1370;-69
2024/04/15 06:10:19;;;;;;;;;;;11.00;99.90;;;9.98;100.00;97668.06;5429734;26;1491;-69
2024/04/15 06:12:47;;;;;;;;;;;10.90;99.90;;;9.97;100.00;97668.97;5430971;26;1375;-69
2024/04/15 06:15:14;;;;;;;;;;;10.80;99.90;;;9.92;100.00;97675.22;5429945;26;3745;-69
2024/04/15 06:17:41;;;;;;;;;;;10.80;99.90;;;9.95;100.00;97678.56;5428364;26;2663;-69
2024/04/15 06:20:09;;;;;;;;;;;10.70;99.90;;;10.01;100.00;97680.94;5425030;26;1486;-69
2024/04/15 06:22:36;;;;;;;;;;;10.80;99.90;;;9.94;100.00;97670.81;5424645;26;1367;-69
2024/04/15 06:25:04;;;;;;;;;;;10.70;99.90;;;10.03;100.00;97666.16;5428218;26;1879;-69
2024/04/15 06:27:31;;;;;;;;;;;10.60;99.90;;;9.98;100.00;97659.44;5427706;26;1351;-69
2024/04/15 06:29:58;;;;;;;;;;;10.80;99.90;;;9.78;100.00;97652.41;5429995;26;2276;-69
2024/04/15 06:32:25;;;;;;;;;;;10.80;99.90;;;9.90;100.00;97635.53;5428131;26;1398;-69
2024/04/15 06:34:52;;;;;;;;;;;10.80;99.90;;;9.91;100.00;97637.25;5431390;26;1422;-69
2024/04/15 06:37:18;;;;;;;;;;;10.70;99.90;;;10.02;100.00;97645.47;5427761;26;1486;-69
2024/04/15 06:39:45;;;;;;;;;;;10.70;99.90;;;10.16;100.00;97627.59;5424980;26;1365;-69
2024/04/15 06:42:12;;;;;;;;;;;10.80;99.90;;;10.58;100.00;97599.97;5427679;26;1120;-69
2024/04/15 06:44:39;;;;;;;;;;;11.00;99.90;;;10.59;100.00;97596.47;5430892;26;2728;-69
2024/04/15 06:47:06;;;;;;;;;;;11.00;99.90;;;10.60;100.00;97593.81;5432527;26;4967;-69
2024/04/15 06:49:33;;;;;;;;;;;11.20;99.90;;;10.57;100.00;97580.13;5425179;26;1458;-69
2024/04/15 06:52:00;;;;;;;;;;;11.20;99.90;;;10.42;100.00;97542.69;5430177;26;1278;-69
2024/04/15 06:54:27;;;;;;;;;;;11.20;99.90;;;10.50;100.00;97527.63;5426556;26;1288;-69
2024/04/15 06:56:54;;;;;;;;;;;11.20;99.90;;;10.36;100.00;97507.47;5432475;26;1311;-69
2024/04/15 06:59:21;;;;;;;;;;;11.20;99.90;;;10.66;100.00;97515.66;5427836;26;1403;-69
2024/04/15 07:01:47;;;;;;;;;;;11.20;99.90;;;10.85;100.00;97484.53;5435529;26;2237;-69
2024/04/15 07:04:14;;;;;;;;;;;11.30;99.90;;;10.84;100.00;97485.47;5429891;26;2832;-69
2024/04/15 07:06:42;;;;;;;;;;;11.40;99.90;;;10.93;100.00;97472.97;5434089;26;1436;-69
2024/04/15 07:09:14;;;;;;;;;;;11.40;99.90;;;10.94;100.00;97453.88;5430170;26;1553;-69
2024/04/15 07:11:40;;;;;;;;;;;11.50;99.90;;;10.97;100.00;97438.16;5423515;26;1119;-69
2024/04/15 07:14:07;;;;;;;;;;;11.40;99.90;;;11.02;100.00;97424.03;5426402;26;1125;-68
2024/04/15 07:16:34;;;;;;;;;;;11.40;99.90;;;10.72;100.00;97421.13;5422628;26;2198;-68
2024/04/15 07:19:01;;;;;;;;;;;11.30;99.90;;;10.78;100.00;97426.00;5421170;26;2768;-68
2024/04/15 07:21:28;;;;;;;;;;;11.30;99.90;;;10.81;100.00;97394.72;5423645;26;1262;-68
2024/04/15 07:23:55;;;;;;;;;;;11.40;99.90;;;11.27;100.00;97392.56;5433461;26;1297;-69
2024/04/15 07:26:22;;;;;;;;;;;11.60;99.90;;;11.03;100.00;97376.38;5430674;26;1860;-68
2024/04/15 07:28:52;;;;;;;;;;;11.80;99.90;;;11.11;100.00;97376.03;5434350;26;1438;-68
2024/04/15 07:31:18;;;;;;;;;;;11.60;99.90;;;10.83;100.00;97377.34;5427687;26;1327;-68
2024/04/15 07:33:46;;;;;;;;;;;11.50;99.90;;;11.08;100.00;97357.97;5427842;26;3685;-68
2024/04/15 07:36:12;;;;;;;;;;;11.40;99.90;;;10.92;100.00;97354.44;5424644;26;1436;-68
2024/04/15 07:38:39;;;;;;;;;;;11.40;99.90;;;11.24;100.00;97347.66;5427568;26;1355;-68
2024/04/15 07:41:06;;;;;;;;;;;11.60;99.90;;;11.27;100.00;97342.34;5430263;26;1360;-69
2024/04/15 07:43:33;;;;;;;;;;;11.70;99.90;;;11.09;100.00;97342.31;5427165;26;1467;-68
2024/04/15 07:46:00;;;;;;;;;;;11.60;99.90;;;11.24;100.00;97319.97;5427103;26;1838;-69
2024/04/15 07:48:27;;;;;;;;;;;11.70;99.90;;;11.43;100.00;97334.63;5429028;26;2748;-69
2024/04/15 07:50:53;;;;;;;;;;;11.80;99.90;;;11.28;100.00;97324.06;5420676;26;1383;-69
2024/04/15 07:53:20;;;;;;;;;;;11.90;99.90;;;11.63;100.00;97312.81;5429468;26;1327;-69
2024/04/15 07:55:47;;;;;;;;;;;11.90;99.90;;;11.95;100.00;97320.75;5426976;26;1763;-69
2024/04/15 07:58:14;;;;;;;;;;;12.10;99.90;;;12.02;100.00;97306.50;5425215;26;1365;-69
2024/04/15 08:00:43;;;;;;;;;;;12.10;99.90;;;11.91;100.00;97305.31;5428156;26;1437;-69
2024/04/15 08:03:11;;;;;;;;;;;12.40;99.90;;;12.52;100.00;97263.88;5420608;26;2396;-69
2024/04/15 08:05:38;;;;;;;;;;;12.80;99.90;;;12.32;100.00;97271.03;5429245;26;1837;-69
2024/04/15 08:08:06;;;;;;;;;;;12.90;99.90;;;12.42;100.00;97262.72;5437847;26;1373;-69
2024/04/15 08:10:33;;;;;;;;;;;12.50;99.90;;;12.04;100.00;97269.09;5428961;26;1613;-69
2024/04/15 08:13:00;;;;;;;;;;;12.50;99.90;;;12.13;100.00;97263.41;5432847;26;1186;-69
2024/04/15 08:15:27;;;;;;;;;;;12.20;99.90;;;11.96;100.00;97260.84;5429875;26;1451;-69
2024/04/15 08:17:54;;;;;;;;;;;12.30;99.90;;;12.29;100.00;97271.22;5423868;26;3994;-69
2024/04/15 08:20:22;;;;;;;;;;;12.50;99.90;;;12.64;100.00;97271.03;5430300;26;1475;-69
2024/04/15 08:22:49;;;;;;;;;;;12.60;99.90;;;12.85;100.00;97255.97;5425567;26;1586;-69
2024/04/15 08:25:17;;;;;;;;;;;12.70;99.90;;;12.24;100.00;97255.00;5429314;26;2797;-69
2024/04/15 08:27:43;;;;;;;;;;;12.80;99.90;;;12.48;100.00;97263.22;5430206;26;1452;-69
2024/04/15 08:30:10;;;;;;;;;;;13.10;99.90;;;12.86;100.00;97257.63;5427870;26;1464;-68
2024/04/15 08:32:38;;;;;;;;;;;13.20;99.90;;;12.92;100.00;97243.41;5428898;26;1442;-69
2024/04/15 08:35:05;;;;;;;;;;;;;;;12.98;100.00;97240.47;5421480;26;2558;-69
2024/04/15 08:37:33;;;;;;;;;;;13.60;99.90;;;12.77;100.00;97248.59;5430693;26;1448;-69
2024/04/15 08:40:17;;;;;;;;;;;13.50;99.90;;;13.38;100.00;97218.13;5431173;26;1417;-69
2024/04/15 08:42:49;;;;;;;;;;;13.70;99.90;;;12.92;100.00;97209.56;5431802;26;1426;-69
2024/04/15 08:45:18;;;;;;;;;;;13.90;99.90;;;13.27;100.00;97201.44;5426833;26;1960;-70
2024/04/15 08:47:50;;;;;;;;;;;14.30;99.90;;;13.00;100.00;97228.19;5427442;26;2717;-70
2024/04/15 08:50:20;;;;;;;;;;;14.20;99.90;;;13.54;100.00;97197.19;5427934;26;1455;-70
2024/04/15 08:52:52;;;;;;;;;;;13.90;99.90;;;13.38;100.00;97194.69;5431834;26;1371;-70
2024/04/15 08:55:20;;;;;;;;;;;14.10;99.90;;;13.07;100.00;97184.38;5435700;26;1380;-70
2024/04/15 08:57:47;;;;;;;;;;;13.90;99.90;;;13.07;100.00;97200.84;5435850;26;1447;-70
2024/04/15 09:00:21;;;;;;;;;;;13.50;99.90;;;13.14;100.00;97201.34;5437419;26;1490;-69
2024/04/15 09:02:50;;;;;;;;;;;13.40;99.90;;;13.21;100.00;97187.00;5434739;26;3683;-69
2024/04/15 09:05:18;;;;;;;;;;;13.30;99.90;;;13.28;100.00;97188.34;5438443;26;1840;-70
2024/04/15 09:07:45;;;;;;;;;;;13.40;99.90;;;13.00;100.00;97185.66;5430424;26;2981;-69
2024/04/15 09:10:13;;;;;;;;;;;13.30;99.90;;;12.80;100.00;97187.66;5428803;26;1385;-70
2024/04/15 09:12:41;;;;;;;;;;;13.50;99.90;;;12.97;100.00;97184.91;5432757;26;1378;-69
2024/04/15 09:15:09;;;;;;;;;;;13.40;99.90;;;14.06;100.00;97166.22;5425961;26;1470;-69
2024/04/15 09:17:37;;;;;;;;;;;14.10;99.90;;;13.45;100.00;97176.91;5434201;26;1385;-70
2024/04/15 09:20:05;;;;;;;;;;;13.90;99.90;;;13.25;100.00;97172.88;5410273;26;1514;-69
2024/04/15 09:22:34;;;;;;;;;;;13.60;99.90;;;13.08;100.00;97180.84;5433986;26;2231;-70
2024/04/15 09:25:01;;;;;;;;;;;13.30;99.90;;;12.69;100.00;97182.25;5423029;26;1840;-69
2024/04/15 09:27:28;;;;;;;;;;;13.10;99.90;;;13.83;100.00;97167.66;5430030;26;1475;-70
2024/04/15 09:30:01;;;;;;;;;;;13.50;99.90;;;14.05;100.00;97151.47;5431015;26;1941;-69
2024/04/15 09:32:28;;;;;;;;;;;14.10;99.90;;;14.68;100.00;97137.00;5428209;26;1698;-69
2024/04/15 09:35:02;;;;;;;;;;;14.60;99.90;;;13.87;100.00;97137.84;5432047;26;2139;-67
2024/04/15 09:37:31;;;;;;;;;;;14.30;99.90;;;13.42;100.00;97127.56;5429114;26;1677;-70
2024/04/15 09:40:01;;;;;;;;;;;14.30;99.90;;;13.30;100.00;97142.19;5429637;26;1699;-68
2024/04/15 09:42:29;;;;;;;;;;;14.10;99.90;;;13.87;100.00;97133.47;5432612;26;1576;-69
2024/04/15 09:44:57;;;;;;;;;;;13.80;99.90;;;13.92;100.00;97125.34;5433918;26;2209;-68
2024/04/15 09:47:25;;;;;;;;;;;13.80;99.90;;;14.37;100.00;97089.41;5408048;26;1485;-68
2024/04/15 09:49:53;;;;;;;;;;;14.40;99.90;;;15.24;100.00;97075.69;5428516;26;3712;-68
2024/04/15 09:52:24;;;;;;;;;;;14.80;99.90;;;14.28;100.00;97090.84;5430324;26;2899;-68
2024/04/15 09:54:57;;;;;;;;;;;14.90;99.90;;;14.67;100.00;97078.72;5433129;26;1397;-68
2024/04/15 09:57:26;;;;;;;;;;;14.80;99.90;;;14.96;100.00;97055.00;5437021;26;1315;-68
2024/04/15 09:59:58;;;;;;;;;;;15.40;99.90;;;14.39;100.00;97071.84;5423533;26;1766;-68
2024/04/15 10:02:52;;;;;;;;;;;15.10;99.90;;;14.63;100.00;97065.00;5428470;26;1858;-68
2024/04/15 10:05:23;;;;;;;;;;;15.10;99.90;;;14.36;100.00;97069.44;5421500;26;2696;-68
2024/04/15 10:07:58;;;;;;;;;;;14.80;99.90;;;13.70;100.00;97079.72;5431606;26;1617;-68
2024/04/15 10:10:26;;;;;;;;;;;14.50;99.90;;;13.59;100.00;97076.97;5425540;26;1583;-68
2024/04/15 10:13:02;;;;;;;;;;;14.40;99.90;;;13.41;100.00;97052.91;5427710;26;1656;-68
2024/04/15 10:15:29;;;;;;;;;;;14.00;99.90;;;14.60;100.00;97064.41;5452873;26;1869;-68
2024/04/15 10:17:56;;;;;;;;;;;14.30;99.90;;;13.99;100.00;97077.88;5403105;26;2343;-70
2024/04/15 10:20:30;;;;;;;;;;;14.40;99.90;;;13.08;100.00;97061.00;5429330;26;3020;-70
2024/04/15 10:22:58;;;;;;;;;;;14.10;99.90;;;13.75;100.00;97054.22;5436211;26;1606;-70
2024/04/15 10:25:31;;;;;;;;;;;13.90;99.90;;;13.96;100.00;97053.78;5431891;26;1894;-70
2024/04/15 10:27:58;;;;;;;;;;;14.00;99.90;;;13.56;100.00;97067.56;5427558;26;1575;-69
2024/04/15 10:30:31;;;;;;;;;;;14.10;99.90;;;13.99;100.00;97041.34;5429375;26;1651;-70
2024/04/15 10:32:59;;;;;;;;;;;14.20;99.90;;;13.93;100.00;97046.13;5429617;26;1858;-70
2024/04/15 10:35:27;;;;;;;;;;;14.10;99.90;;;13.11;100.00;97021.72;5433963;26;1795;-69
2024/04/15 10:37:58;;;;;;;;;;;14.00;99.90;;;13.24;100.00;97069.53;5436939;26;1539;-70
2024/04/15 10:40:35;;;;;;;;;;;13.80;99.90;;;13.07;100.00;97020.22;5430501;26;2049;-70
2024/04/15 10:43:03;;;;;;;;;;;13.70;99.90;;;13.73;100.00;97040.44;5426289;26;1607;-70
2024/04/15 10:45:31;;;;;;;;;;;13.80;99.90;;;14.38;100.00;97010.94;5435506;26;2186;-69
2024/04/15 10:47:58;;;;;;;;;;;14.50;99.90;;;14.74;100.00;97021.69;5426230;26;1864;-70
2024/04/15 10:50:25;;;;;;;;;;;14.40;99.90;;;16.22;100.00;96963.13;5435553;26;1566;-70
2024/04/15 10:52:52;;;;;;;;;;;14.90;99.90;;;15.72;100.00;96961.66;5429187;26;1782;-69
2024/04/15 10:55:20;;;;;;;;;;;15.60;99.90;;;14.60;100.00;96955.53;5428147;26;1692;-69
2024/04/15 10:57:49;;;;;;;;;;;15.80;99.90;;;14.23;100.00;96965.84;5431850;26;1765;-70
2024/04/15 11:00:18;;;;;;;;;;;14.90;99.90;;;15.42;100.00;96961.09;5429480;26;2679;-70
2024/04/15 11:02:46;;;;;;;;;;;15.40;99.90;;;17.00;100.00;96910.91;5435218;26;2714;-70
2024/04/15 11:05:14;;;;;;;;;;;15.80;99.90;;;16.25;100.00;96914.91;5429181;26;1510;-70
2024/04/15 11:07:42;;;;;;;;;;;15.80;99.90;;;15.17;100.00;96938.50;5426008;26;1877;-70
2024/04/15 11:10:11;;;;;;;;;;;15.60;99.90;;;15.29;100.00;96913.25;5427154;26;1628;-70
2024/04/15 11:12:39;;;;;;;;;;;15.50;99.90;;;15.13;100.00;96902.22;5425712;26;1746;-70
2024/04/15 11:15:10;;;;;;;;;;;15.50;99.90;;;15.45;100.00;96926.88;5402394;26;3750;-70
2024/04/15 11:17:48;;;;;;;;;;;15.40;99.90;;;15.81;100.00;96901.63;5435609;26;1604;-70
2024/04/15 11:20:15;;;;;;;;;;;15.60;99.90;;;15.44;100.00;96878.16;5434260;26;1842;-70